sensor_id;sensor_type;location;lat;lon;timestamp;P1;durP1;ratioP1;P2;durP2;ratioP2
59052;SDS011;44843;44.728;10.396;2023-07-02T00:00:34;1073.50;;;453.30;;
59052;SDS011;44843;44.728;10.396;2023-07-02T00:03:01;1064.05;;;448.10;;
59052;SDS011;44843;44.728;10.396;2023-07-02T00:05:27;1064.85;;;449.83;;
59052;SDS011;44843;44.728;10.396;2023-07-02T00:07:52;1061.10;;;448.42;;
59052;SDS011;44843;44.728;10.396;2023-07-02T00:10:18;1049.03;;;445.42;;
59052;SDS011;44843;44.728;10.396;2023-07-02T00:12:43;1058.22;;;448.10;;
59052;SDS011;44843;44.728;10.396;2023-07-02T00:15:09;1061.60;;;448.15;;
59052;SDS011;44843;44.728;10.396;2023-07-02T00:17:35;1067.00;;;451.38;;
59052;SDS011;44843;44.728;10.396;2023-07-02T00:20:04;1068.53;;;452.73;;
59052;SDS011;44843;44.728;10.396;2023-07-02T00:22:31;1060.72;;;449.60;;
59052;SDS011;44843;44.728;10.396;2023-07-02T00:25:01;1076.65;;;454.92;;
59052;SDS011;44843;44.728;10.396;2023-07-02T00:27:26;1078.50;;;455.00;;
59052;SDS011;44843;44.728;10.396;2023-07-02T00:29:52;1079.45;;;455.50;;
59052;SDS011;44843;44.728;10.396;2023-07-02T00:32:17;1075.72;;;455.45;;
59052;SDS011;44843;44.728;10.396;2023-07-02T00:34:42;1079.78;;;457.02;;
59052;SDS011;44843;44.728;10.396;2023-07-02T00:37:08;1064.85;;;450.15;;
59052;SDS011;44843;44.728;10.396;2023-07-02T00:39:33;1074.55;;;456.02;;
59052;SDS011;44843;44.728;10.396;2023-07-02T00:42:02;1106.65;;;467.48;;
59052;SDS011;44843;44.728;10.396;2023-07-02T00:44:28;1105.40;;;468.02;;
59052;SDS011;44843;44.728;10.396;2023-07-02T00:46:53;1125.22;;;473.25;;
59052;SDS011;44843;44.728;10.396;2023-07-02T00:49:18;1111.13;;;464.48;;
59052;SDS011;44843;44.728;10.396;2023-07-02T00:51:44;1117.10;;;469.08;;
59052;SDS011;44843;44.728;10.396;2023-07-02T00:54:10;1085.90;;;457.38;;
59052;SDS011;44843;44.728;10.396;2023-07-02T00:56:35;1095.20;;;462.92;;
59052;SDS011;44843;44.728;10.396;2023-07-02T00:59:01;1088.40;;;461.52;;
59052;SDS011;44843;44.728;10.396;2023-07-02T01:01:27;1087.22;;;460.50;;
59052;SDS011;44843;44.728;10.396;2023-07-02T01:06:27;1097.28;;;460.85;;
59052;SDS011;44843;44.728;10.396;2023-07-02T01:08:58;1084.63;;;461.02;;
59052;SDS011;44843;44.728;10.396;2023-07-02T01:11:27;1076.53;;;455.55;;
59052;SDS011;44843;44.728;10.396;2023-07-02T01:13:57;1078.15;;;454.92;;
59052;SDS011;44843;44.728;10.396;2023-07-02T01:16:26;1080.20;;;456.88;;
59052;SDS011;44843;44.728;10.396;2023-07-02T01:18:55;1073.85;;;452.48;;
59052;SDS011;44843;44.728;10.396;2023-07-02T01:21:22;1087.63;;;460.35;;
59052;SDS011;44843;44.728;10.396;2023-07-02T01:23:49;1083.78;;;455.73;;
59052;SDS011;44843;44.728;10.396;2023-07-02T01:26:15;1082.35;;;459.70;;
59052;SDS011;44843;44.728;10.396;2023-07-02T01:28:41;1080.18;;;457.40;;
59052;SDS011;44843;44.728;10.396;2023-07-02T01:31:06;1085.32;;;461.02;;
59052;SDS011;44843;44.728;10.396;2023-07-02T01:33:32;1088.32;;;461.38;;
59052;SDS011;44843;44.728;10.396;2023-07-02T01:35:57;1096.63;;;465.27;;
59052;SDS011;44843;44.728;10.396;2023-07-02T01:38:23;1094.88;;;462.88;;
59052;SDS011;44843;44.728;10.396;2023-07-02T01:40:48;1085.78;;;461.60;;
59052;SDS011;44843;44.728;10.396;2023-07-02T01:43:14;1087.57;;;460.98;;
59052;SDS011;44843;44.728;10.396;2023-07-02T01:45:40;1081.10;;;458.27;;
59052;SDS011;44843;44.728;10.396;2023-07-02T01:48:06;1055.55;;;449.15;;
59052;SDS011;44843;44.728;10.396;2023-07-02T01:50:32;1064.63;;;450.73;;
59052;SDS011;44843;44.728;10.396;2023-07-02T01:52:57;1054.25;;;447.02;;
59052;SDS011;44843;44.728;10.396;2023-07-02T01:55:23;1054.35;;;446.33;;
59052;SDS011;44843;44.728;10.396;2023-07-02T01:57:48;1053.72;;;443.58;;
59052;SDS011;44843;44.728;10.396;2023-07-02T02:00:13;1066.50;;;450.35;;
59052;SDS011;44843;44.728;10.396;2023-07-02T02:02:39;1084.05;;;457.90;;
59052;SDS011;44843;44.728;10.396;2023-07-02T02:05:05;1070.90;;;452.58;;
59052;SDS011;44843;44.728;10.396;2023-07-02T02:07:30;1077.93;;;459.60;;
59052;SDS011;44843;44.728;10.396;2023-07-02T02:09:55;1080.40;;;457.02;;
59052;SDS011;44843;44.728;10.396;2023-07-02T02:12:21;1079.63;;;459.33;;
59052;SDS011;44843;44.728;10.396;2023-07-02T02:14:46;1077.85;;;455.80;;
59052;SDS011;44843;44.728;10.396;2023-07-02T02:17:12;1077.00;;;455.17;;
59052;SDS011;44843;44.728;10.396;2023-07-02T02:19:37;1070.88;;;457.55;;
59052;SDS011;44843;44.728;10.396;2023-07-02T02:22:02;1075.70;;;457.45;;
59052;SDS011;44843;44.728;10.396;2023-07-02T02:24:28;1078.40;;;457.65;;
59052;SDS011;44843;44.728;10.396;2023-07-02T02:26:53;1065.18;;;455.10;;
59052;SDS011;44843;44.728;10.396;2023-07-02T02:29:19;1063.93;;;453.95;;
59052;SDS011;44843;44.728;10.396;2023-07-02T02:31:44;1069.68;;;454.73;;
59052;SDS011;44843;44.728;10.396;2023-07-02T02:34:09;1073.25;;;456.05;;
59052;SDS011;44843;44.728;10.396;2023-07-02T02:36:35;1066.45;;;456.33;;
59052;SDS011;44843;44.728;10.396;2023-07-02T02:39:00;1076.30;;;458.10;;
59052;SDS011;44843;44.728;10.396;2023-07-02T02:41:26;1065.40;;;451.92;;
59052;SDS011;44843;44.728;10.396;2023-07-02T02:43:51;1062.57;;;452.92;;
59052;SDS011;44843;44.728;10.396;2023-07-02T02:46:20;1069.57;;;453.38;;
59052;SDS011;44843;44.728;10.396;2023-07-02T02:48:49;1053.60;;;450.58;;
59052;SDS011;44843;44.728;10.396;2023-07-02T02:51:14;1037.00;;;439.92;;
59052;SDS011;44843;44.728;10.396;2023-07-02T02:53:40;1058.28;;;449.55;;
59052;SDS011;44843;44.728;10.396;2023-07-02T02:56:05;1054.43;;;448.30;;
59052;SDS011;44843;44.728;10.396;2023-07-02T02:58:31;1047.43;;;447.48;;
59052;SDS011;44843;44.728;10.396;2023-07-02T03:00:56;1053.80;;;448.00;;
59052;SDS011;44843;44.728;10.396;2023-07-02T03:03:22;1053.97;;;448.67;;
59052;SDS011;44843;44.728;10.396;2023-07-02T03:05:49;1062.38;;;452.05;;
59052;SDS011;44843;44.728;10.396;2023-07-02T03:08:15;1079.72;;;459.73;;
59052;SDS011;44843;44.728;10.396;2023-07-02T03:10:41;1061.97;;;452.30;;
59052;SDS011;44843;44.728;10.396;2023-07-02T03:13:06;1049.82;;;449.52;;
59052;SDS011;44843;44.728;10.396;2023-07-02T03:15:32;1061.55;;;455.77;;
59052;SDS011;44843;44.728;10.396;2023-07-02T03:17:57;1047.38;;;449.60;;
59052;SDS011;44843;44.728;10.396;2023-07-02T03:20:22;1059.25;;;452.67;;
59052;SDS011;44843;44.728;10.396;2023-07-02T03:22:48;1045.72;;;447.15;;
59052;SDS011;44843;44.728;10.396;2023-07-02T03:25:13;1045.93;;;448.20;;
59052;SDS011;44843;44.728;10.396;2023-07-02T03:27:39;1037.90;;;441.70;;
59052;SDS011;44843;44.728;10.396;2023-07-02T03:30:05;1056.22;;;449.98;;
59052;SDS011;44843;44.728;10.396;2023-07-02T03:32:31;1059.03;;;453.05;;
59052;SDS011;44843;44.728;10.396;2023-07-02T03:34:56;1060.82;;;452.08;;
59052;SDS011;44843;44.728;10.396;2023-07-02T03:37:21;1051.38;;;448.73;;
59052;SDS011;44843;44.728;10.396;2023-07-02T03:39:47;1056.80;;;454.10;;
59052;SDS011;44843;44.728;10.396;2023-07-02T03:42:12;1061.07;;;455.05;;
59052;SDS011;44843;44.728;10.396;2023-07-02T03:44:37;1047.82;;;444.67;;
59052;SDS011;44843;44.728;10.396;2023-07-02T03:47:03;1065.75;;;454.15;;
59052;SDS011;44843;44.728;10.396;2023-07-02T03:49:28;1054.00;;;452.70;;
59052;SDS011;44843;44.728;10.396;2023-07-02T03:51:54;1067.80;;;456.20;;
59052;SDS011;44843;44.728;10.396;2023-07-02T03:54:19;1054.95;;;452.45;;
59052;SDS011;44843;44.728;10.396;2023-07-02T03:56:45;1019.35;;;436.58;;
59052;SDS011;44843;44.728;10.396;2023-07-02T03:59:10;1026.50;;;435.10;;
59052;SDS011;44843;44.728;10.396;2023-07-02T04:01:35;1027.20;;;437.95;;
59052;SDS011;44843;44.728;10.396;2023-07-02T04:04:01;1040.45;;;442.42;;
59052;SDS011;44843;44.728;10.396;2023-07-02T04:06:26;1044.38;;;443.52;;
59052;SDS011;44843;44.728;10.396;2023-07-02T04:08:51;1046.15;;;445.10;;
59052;SDS011;44843;44.728;10.396;2023-07-02T04:11:17;1024.82;;;437.30;;
59052;SDS011;44843;44.728;10.396;2023-07-02T04:13:42;1037.32;;;441.05;;
59052;SDS011;44843;44.728;10.396;2023-07-02T04:16:08;1050.78;;;446.67;;
59052;SDS011;44843;44.728;10.396;2023-07-02T04:18:33;1057.70;;;451.73;;
59052;SDS011;44843;44.728;10.396;2023-07-02T04:20:58;1049.97;;;446.52;;
59052;SDS011;44843;44.728;10.396;2023-07-02T04:23:24;1052.97;;;447.25;;
59052;SDS011;44843;44.728;10.396;2023-07-02T04:25:50;1048.80;;;448.15;;
59052;SDS011;44843;44.728;10.396;2023-07-02T04:28:15;1060.35;;;454.90;;
59052;SDS011;44843;44.728;10.396;2023-07-02T04:30:42;1061.97;;;454.77;;
59052;SDS011;44843;44.728;10.396;2023-07-02T04:33:08;1063.47;;;453.40;;
59052;SDS011;44843;44.728;10.396;2023-07-02T04:35:33;1062.90;;;454.55;;
59052;SDS011;44843;44.728;10.396;2023-07-02T04:37:59;1062.38;;;453.33;;
59052;SDS011;44843;44.728;10.396;2023-07-02T04:40:25;1052.43;;;445.67;;
59052;SDS011;44843;44.728;10.396;2023-07-02T04:42:51;1054.13;;;446.80;;
59052;SDS011;44843;44.728;10.396;2023-07-02T04:45:23;1057.22;;;450.02;;
59052;SDS011;44843;44.728;10.396;2023-07-02T04:47:49;1055.80;;;447.98;;
59052;SDS011;44843;44.728;10.396;2023-07-02T04:50:15;1061.00;;;447.25;;
59052;SDS011;44843;44.728;10.396;2023-07-02T04:52:41;1077.05;;;450.00;;
59052;SDS011;44843;44.728;10.396;2023-07-02T04:55:07;1079.22;;;450.52;;
59052;SDS011;44843;44.728;10.396;2023-07-02T04:57:32;1092.70;;;454.02;;
59052;SDS011;44843;44.728;10.396;2023-07-02T04:59:58;1105.88;;;455.75;;
59052;SDS011;44843;44.728;10.396;2023-07-02T05:02:23;1111.53;;;456.60;;
59052;SDS011;44843;44.728;10.396;2023-07-02T05:04:49;1110.15;;;453.83;;
59052;SDS011;44843;44.728;10.396;2023-07-02T05:07:15;1108.95;;;451.38;;
59052;SDS011;44843;44.728;10.396;2023-07-02T05:09:41;1120.63;;;454.42;;
59052;SDS011;44843;44.728;10.396;2023-07-02T05:12:06;1133.97;;;457.95;;
59052;SDS011;44843;44.728;10.396;2023-07-02T05:14:32;1139.78;;;459.63;;
59052;SDS011;44843;44.728;10.396;2023-07-02T05:16:57;1136.50;;;457.45;;
59052;SDS011;44843;44.728;10.396;2023-07-02T05:19:23;1143.13;;;459.33;;
59052;SDS011;44843;44.728;10.396;2023-07-02T05:21:48;1151.22;;;463.00;;
59052;SDS011;44843;44.728;10.396;2023-07-02T05:24:13;1154.25;;;465.38;;
59052;SDS011;44843;44.728;10.396;2023-07-02T05:26:39;1135.37;;;462.03;;
59052;SDS011;44843;44.728;10.396;2023-07-02T05:29:04;1129.57;;;458.23;;
59052;SDS011;44843;44.728;10.396;2023-07-02T05:31:30;1123.75;;;451.50;;
59052;SDS011;44843;44.728;10.396;2023-07-02T05:33:55;1152.70;;;460.52;;
59052;SDS011;44843;44.728;10.396;2023-07-02T05:36:21;1134.07;;;454.45;;
59052;SDS011;44843;44.728;10.396;2023-07-02T05:38:47;1115.03;;;449.40;;
59052;SDS011;44843;44.728;10.396;2023-07-02T05:41:21;1184.53;;;475.00;;
59052;SDS011;44843;44.728;10.396;2023-07-02T05:43:47;1114.18;;;445.45;;
59052;SDS011;44843;44.728;10.396;2023-07-02T05:46:12;1113.22;;;446.42;;
59052;SDS011;44843;44.728;10.396;2023-07-02T05:48:39;1109.63;;;445.70;;
59052;SDS011;44843;44.728;10.396;2023-07-02T05:51:05;1101.15;;;441.67;;
59052;SDS011;44843;44.728;10.396;2023-07-02T05:53:30;1112.40;;;446.05;;
59052;SDS011;44843;44.728;10.396;2023-07-02T05:55:56;1104.15;;;443.40;;
59052;SDS011;44843;44.728;10.396;2023-07-02T05:58:21;1120.97;;;449.45;;
59052;SDS011;44843;44.728;10.396;2023-07-02T06:00:46;1101.18;;;442.10;;
59052;SDS011;44843;44.728;10.396;2023-07-02T06:03:14;1091.88;;;439.10;;
59052;SDS011;44843;44.728;10.396;2023-07-02T06:05:45;1088.00;;;438.08;;
59052;SDS011;44843;44.728;10.396;2023-07-02T06:08:14;1111.75;;;445.90;;
59052;SDS011;44843;44.728;10.396;2023-07-02T06:10:40;1084.93;;;436.48;;
59052;SDS011;44843;44.728;10.396;2023-07-02T06:13:06;1085.47;;;435.98;;
59052;SDS011;44843;44.728;10.396;2023-07-02T06:15:31;1097.00;;;441.60;;
59052;SDS011;44843;44.728;10.396;2023-07-02T06:17:57;1131.03;;;460.03;;
59052;SDS011;44843;44.728;10.396;2023-07-02T06:20:22;1117.47;;;455.83;;
59052;SDS011;44843;44.728;10.396;2023-07-02T06:22:47;1095.33;;;448.03;;
59052;SDS011;44843;44.728;10.396;2023-07-02T06:25:13;1125.22;;;451.50;;
59052;SDS011;44843;44.728;10.396;2023-07-02T06:27:38;1103.20;;;440.23;;
59052;SDS011;44843;44.728;10.396;2023-07-02T06:30:04;1131.32;;;449.80;;
59052;SDS011;44843;44.728;10.396;2023-07-02T06:32:31;1126.05;;;448.25;;
59052;SDS011;44843;44.728;10.396;2023-07-02T06:34:56;1110.88;;;444.42;;
59052;SDS011;44843;44.728;10.396;2023-07-02T06:37:21;1105.45;;;442.23;;
59052;SDS011;44843;44.728;10.396;2023-07-02T06:39:47;1125.05;;;450.23;;
59052;SDS011;44843;44.728;10.396;2023-07-02T18:46:47;1095.55;;;449.55;;
59052;SDS011;44843;44.728;10.396;2023-07-02T18:49:13;1132.53;;;463.25;;
59052;SDS011;44843;44.728;10.396;2023-07-02T18:51:39;1140.63;;;469.55;;
59052;SDS011;44843;44.728;10.396;2023-07-02T18:54:06;1131.82;;;464.73;;
59052;SDS011;44843;44.728;10.396;2023-07-02T18:56:31;1128.85;;;464.15;;
59052;SDS011;44843;44.728;10.396;2023-07-02T18:58:57;1147.43;;;472.05;;
59052;SDS011;44843;44.728;10.396;2023-07-02T19:01:22;1157.82;;;474.85;;
59052;SDS011;44843;44.728;10.396;2023-07-02T19:03:48;1166.75;;;476.95;;
59052;SDS011;44843;44.728;10.396;2023-07-02T19:06:13;1187.30;;;484.35;;
59052;SDS011;44843;44.728;10.396;2023-07-02T19:08:39;1179.82;;;480.77;;
59052;SDS011;44843;44.728;10.396;2023-07-02T19:11:06;1139.00;;;464.13;;
59052;SDS011;44843;44.728;10.396;2023-07-02T19:13:32;1097.03;;;446.05;;
59052;SDS011;44843;44.728;10.396;2023-07-02T19:15:59;1098.50;;;447.02;;
59052;SDS011;44843;44.728;10.396;2023-07-02T19:18:25;1064.40;;;431.45;;
59052;SDS011;44843;44.728;10.396;2023-07-02T19:20:51;1076.38;;;436.88;;
59052;SDS011;44843;44.728;10.396;2023-07-02T19:23:17;1097.25;;;446.33;;
59052;SDS011;44843;44.728;10.396;2023-07-02T19:25:43;1128.85;;;458.33;;
59052;SDS011;44843;44.728;10.396;2023-07-02T19:28:10;1124.50;;;458.92;;
59052;SDS011;44843;44.728;10.396;2023-07-02T19:30:36;1055.10;;;427.33;;
59052;SDS011;44843;44.728;10.396;2023-07-02T19:33:02;1131.05;;;459.48;;
59052;SDS011;44843;44.728;10.396;2023-07-02T19:35:27;1112.75;;;452.65;;
59052;SDS011;44843;44.728;10.396;2023-07-02T19:37:52;1122.15;;;455.23;;
59052;SDS011;44843;44.728;10.396;2023-07-02T19:40:18;1149.30;;;466.85;;
59052;SDS011;44843;44.728;10.396;2023-07-02T19:42:45;1095.95;;;442.30;;
59052;SDS011;44843;44.728;10.396;2023-07-02T19:45:11;1121.45;;;454.60;;
59052;SDS011;44843;44.728;10.396;2023-07-02T19:47:36;1142.00;;;462.90;;
59052;SDS011;44843;44.728;10.396;2023-07-02T19:50:02;1137.68;;;459.83;;
59052;SDS011;44843;44.728;10.396;2023-07-02T19:52:29;1056.85;;;427.85;;
59052;SDS011;44843;44.728;10.396;2023-07-02T19:54:55;1095.10;;;441.67;;
59052;SDS011;44843;44.728;10.396;2023-07-02T19:57:23;1113.93;;;451.15;;
59052;SDS011;44843;44.728;10.396;2023-07-02T19:59:49;1139.18;;;460.88;;
59052;SDS011;44843;44.728;10.396;2023-07-02T20:02:15;1094.53;;;444.75;;
59052;SDS011;44843;44.728;10.396;2023-07-02T20:04:54;1114.22;;;450.30;;
59052;SDS011;44843;44.728;10.396;2023-07-02T20:07:23;1119.45;;;454.33;;
59052;SDS011;44843;44.728;10.396;2023-07-02T20:09:48;1129.57;;;458.48;;
59052;SDS011;44843;44.728;10.396;2023-07-02T20:12:14;1122.68;;;457.42;;
59052;SDS011;44843;44.728;10.396;2023-07-02T20:14:40;1096.75;;;443.73;;
59052;SDS011;44843;44.728;10.396;2023-07-02T20:17:08;1118.15;;;453.80;;
59052;SDS011;44843;44.728;10.396;2023-07-02T20:19:35;1114.43;;;453.00;;
59052;SDS011;44843;44.728;10.396;2023-07-02T20:22:01;1126.35;;;455.73;;
59052;SDS011;44843;44.728;10.396;2023-07-02T20:24:27;1135.35;;;460.23;;
59052;SDS011;44843;44.728;10.396;2023-07-02T20:26:53;1156.68;;;469.00;;
59052;SDS011;44843;44.728;10.396;2023-07-02T20:29:20;1144.50;;;463.58;;
59052;SDS011;44843;44.728;10.396;2023-07-02T20:31:46;1100.78;;;446.42;;
59052;SDS011;44843;44.728;10.396;2023-07-02T20:34:13;1108.78;;;448.45;;
59052;SDS011;44843;44.728;10.396;2023-07-02T20:36:40;1117.78;;;452.15;;
59052;SDS011;44843;44.728;10.396;2023-07-02T20:39:06;1125.90;;;456.15;;
59052;SDS011;44843;44.728;10.396;2023-07-02T20:41:31;1124.70;;;457.80;;
59052;SDS011;44843;44.728;10.396;2023-07-02T20:43:57;1123.07;;;458.10;;
59052;SDS011;44843;44.728;10.396;2023-07-02T20:46:28;1139.47;;;465.25;;
59052;SDS011;44843;44.728;10.396;2023-07-02T20:48:57;1129.70;;;458.55;;
59052;SDS011;44843;44.728;10.396;2023-07-02T20:51:24;1136.68;;;463.15;;
59052;SDS011;44843;44.728;10.396;2023-07-02T20:53:50;1134.22;;;459.55;;
59052;SDS011;44843;44.728;10.396;2023-07-02T20:56:15;1107.00;;;449.15;;
59052;SDS011;44843;44.728;10.396;2023-07-02T20:58:41;1091.18;;;442.90;;
59052;SDS011;44843;44.728;10.396;2023-07-02T21:01:07;1103.97;;;447.25;;
59052;SDS011;44843;44.728;10.396;2023-07-02T21:03:35;1101.72;;;446.00;;
59052;SDS011;44843;44.728;10.396;2023-07-02T21:06:05;1102.25;;;447.98;;
59052;SDS011;44843;44.728;10.396;2023-07-02T21:08:32;1069.97;;;433.42;;
59052;SDS011;44843;44.728;10.396;2023-07-02T21:10:57;1030.47;;;417.15;;
59052;SDS011;44843;44.728;10.396;2023-07-02T21:13:23;1032.70;;;416.02;;
59052;SDS011;44843;44.728;10.396;2023-07-02T21:15:55;1029.93;;;418.73;;
59052;SDS011;44843;44.728;10.396;2023-07-02T21:18:20;1044.35;;;423.70;;
59052;SDS011;44843;44.728;10.396;2023-07-02T21:20:46;1048.72;;;424.65;;
59052;SDS011;44843;44.728;10.396;2023-07-02T21:23:11;1034.80;;;421.10;;
59052;SDS011;44843;44.728;10.396;2023-07-02T21:25:37;1031.10;;;416.08;;
59052;SDS011;44843;44.728;10.396;2023-07-02T21:28:02;1047.47;;;422.88;;
59052;SDS011;44843;44.728;10.396;2023-07-02T21:30:27;1072.63;;;431.80;;
59052;SDS011;44843;44.728;10.396;2023-07-02T21:32:53;1071.15;;;434.35;;
59052;SDS011;44843;44.728;10.396;2023-07-02T21:35:18;1074.22;;;434.60;;
59052;SDS011;44843;44.728;10.396;2023-07-02T21:37:44;1065.00;;;430.52;;
59052;SDS011;44843;44.728;10.396;2023-07-02T21:40:09;1032.22;;;418.65;;
59052;SDS011;44843;44.728;10.396;2023-07-02T21:42:35;1054.32;;;424.63;;
59052;SDS011;44843;44.728;10.396;2023-07-02T21:45:00;1048.97;;;423.27;;
59052;SDS011;44843;44.728;10.396;2023-07-02T21:47:25;1049.57;;;423.85;;
59052;SDS011;44843;44.728;10.396;2023-07-02T21:49:54;1037.68;;;417.80;;
59052;SDS011;44843;44.728;10.396;2023-07-02T21:52:20;1053.47;;;424.52;;
59052;SDS011;44843;44.728;10.396;2023-07-02T21:54:45;1060.03;;;427.65;;
59052;SDS011;44843;44.728;10.396;2023-07-02T21:57:11;1052.55;;;426.33;;
59052;SDS011;44843;44.728;10.396;2023-07-02T21:59:36;1062.72;;;430.00;;
59052;SDS011;44843;44.728;10.396;2023-07-02T22:02:01;1042.88;;;419.63;;
59052;SDS011;44843;44.728;10.396;2023-07-02T22:04:27;984.67;;;398.58;;
59052;SDS011;44843;44.728;10.396;2023-07-02T22:06:52;1027.10;;;415.33;;
59052;SDS011;44843;44.728;10.396;2023-07-02T22:09:17;1036.80;;;418.48;;
59052;SDS011;44843;44.728;10.396;2023-07-02T22:11:43;994.80;;;404.40;;
59052;SDS011;44843;44.728;10.396;2023-07-02T22:14:08;1021.13;;;414.05;;
59052;SDS011;44843;44.728;10.396;2023-07-02T22:16:33;1036.95;;;419.70;;
59052;SDS011;44843;44.728;10.396;2023-07-02T22:18:59;1051.43;;;423.42;;
59052;SDS011;44843;44.728;10.396;2023-07-02T22:21:26;1092.30;;;441.30;;
59052;SDS011;44843;44.728;10.396;2023-07-02T22:23:52;1065.40;;;431.20;;
59052;SDS011;44843;44.728;10.396;2023-07-02T22:26:17;1079.13;;;436.65;;
59052;SDS011;44843;44.728;10.396;2023-07-02T22:28:43;1065.45;;;432.55;;
59052;SDS011;44843;44.728;10.396;2023-07-02T22:31:08;1072.95;;;433.08;;
59052;SDS011;44843;44.728;10.396;2023-07-02T22:33:34;1076.65;;;436.15;;
59052;SDS011;44843;44.728;10.396;2023-07-02T22:35:59;1086.70;;;440.00;;
59052;SDS011;44843;44.728;10.396;2023-07-02T22:38:24;1091.35;;;439.77;;
59052;SDS011;44843;44.728;10.396;2023-07-02T22:40:51;1105.10;;;445.92;;
59052;SDS011;44843;44.728;10.396;2023-07-02T22:43:16;1063.32;;;431.40;;
59052;SDS011;44843;44.728;10.396;2023-07-02T22:45:41;1075.53;;;435.55;;
59052;SDS011;44843;44.728;10.396;2023-07-02T22:48:07;1071.35;;;437.50;;
59052;SDS011;44843;44.728;10.396;2023-07-02T22:50:32;1075.88;;;438.73;;
59052;SDS011;44843;44.728;10.396;2023-07-02T22:52:58;1057.97;;;427.20;;
59052;SDS011;44843;44.728;10.396;2023-07-02T22:55:26;1051.45;;;426.60;;
59052;SDS011;44843;44.728;10.396;2023-07-02T22:57:54;1059.30;;;431.65;;
59052;SDS011;44843;44.728;10.396;2023-07-02T23:00:19;1051.95;;;428.02;;
59052;SDS011;44843;44.728;10.396;2023-07-02T23:02:45;1054.78;;;428.70;;
59052;SDS011;44843;44.728;10.396;2023-07-02T23:05:11;1038.05;;;421.80;;
59052;SDS011;44843;44.728;10.396;2023-07-02T23:07:38;1049.88;;;427.73;;
59052;SDS011;44843;44.728;10.396;2023-07-02T23:10:05;1058.38;;;428.85;;
59052;SDS011;44843;44.728;10.396;2023-07-02T23:12:37;1045.88;;;420.35;;
59052;SDS011;44843;44.728;10.396;2023-07-02T23:15:05;1052.35;;;423.98;;
59052;SDS011;44843;44.728;10.396;2023-07-02T23:17:37;1046.32;;;420.42;;
59052;SDS011;44843;44.728;10.396;2023-07-02T23:20:04;1044.28;;;420.52;;
59052;SDS011;44843;44.728;10.396;2023-07-02T23:22:31;1031.30;;;416.30;;
59052;SDS011;44843;44.728;10.396;2023-07-02T23:24:56;1028.50;;;416.85;;
59052;SDS011;44843;44.728;10.396;2023-07-02T23:27:23;1016.08;;;409.60;;
59052;SDS011;44843;44.728;10.396;2023-07-02T23:29:48;1052.93;;;428.73;;
59052;SDS011;44843;44.728;10.396;2023-07-02T23:32:20;1057.13;;;430.15;;
59052;SDS011;44843;44.728;10.396;2023-07-02T23:34:45;1055.30;;;427.33;;
59052;SDS011;44843;44.728;10.396;2023-07-02T23:37:11;1046.22;;;421.52;;
59052;SDS011;44843;44.728;10.396;2023-07-02T23:39:39;1038.53;;;419.83;;
59052;SDS011;44843;44.728;10.396;2023-07-02T23:42:05;977.70;;;394.58;;
59052;SDS011;44843;44.728;10.396;2023-07-02T23:44:31;985.10;;;397.10;;
59052;SDS011;44843;44.728;10.396;2023-07-02T23:46:56;1046.72;;;425.73;;
59052;SDS011;44843;44.728;10.396;2023-07-02T23:49:22;1049.93;;;428.08;;
59052;SDS011;44843;44.728;10.396;2023-07-02T23:56:38;1076.55;;;439.50;;
59052;SDS011;44843;44.728;10.396;2023-07-02T23:59:03;1060.65;;;433.15;;
